Time;durP1;ratioP1;P1;durP2;ratioP2;P2;SDS_P1;SDS_P2;PMS_P1;PMS_P2;Temp;Humidity;BMP_temperature;BMP_pressure;BME280_temperature;BME280_humidity;BME280_pressure;Samples;Min_cycle;Max_cycle;Signal;HPM_P1;HPM_P2
2021/11/09 00:00:53;;;;;;;16.07;9.23;;;3.20;94.70;;;;;;6190295;23;20250;-88
2021/11/09 00:03:21;;;;;;;19.93;9.27;;;3.30;94.70;;;;;;6189782;23;20281;-88
2021/11/09 00:05:52;;;;;;;18.00;8.83;;;3.40;94.70;;;;;;6190476;23;20219;-88
2021/11/09 00:08:22;;;;;;;16.73;8.97;;;3.40;95.00;;;;;;6189095;23;20437;-90
2021/11/09 00:10:50;;;;;;;20.00;9.07;;;3.30;94.70;;;;;;6188945;23;20234;-90
2021/11/09 00:13:17;;;;;;;13.03;8.73;;;3.40;94.70;;;;;;6189030;23;20237;-86
2021/11/09 00:15:45;;;;;;;12.90;8.00;;;3.40;94.70;;;;;;6189594;23;20205;-88
2021/11/09 00:18:12;;;;;;;13.77;8.57;;;3.40;94.70;;;;;;6162258;23;20419;-88
2021/11/09 00:20:42;;;;;;;16.13;8.30;;;3.50;94.50;;;;;;6190768;23;20222;-87
2021/11/09 00:23:10;;;;;;;14.73;8.40;;;3.50;94.70;;;;;;6198080;23;20226;-88
2021/11/09 00:25:38;;;;;;;14.93;8.57;;;3.50;94.20;;;;;;6191584;23;20254;-91
2021/11/09 00:28:06;;;;;;;16.10;8.23;;;3.50;94.50;;;;;;6191354;23;20530;-88
2021/11/09 00:30:34;;;;;;;14.50;8.60;;;3.50;94.80;;;;;;6165704;23;20179;-89
2021/11/09 00:33:01;;;;;;;17.10;8.57;;;3.40;94.70;;;;;;6192699;23;20210;-88
2021/11/09 00:35:31;;;;;;;12.53;7.93;;;3.50;94.70;;;;;;6196617;23;20239;-88
2021/11/09 00:38:01;;;;;;;14.20;8.13;;;3.60;94.50;;;;;;6191895;23;20265;-87
2021/11/09 00:40:31;;;;;;;17.60;8.47;;;3.70;94.30;;;;;;6193616;23;20181;-87
2021/11/09 00:42:59;;;;;;;14.37;8.03;;;3.70;94.50;;;;;;6192346;23;20285;-87
2021/11/09 00:45:26;;;;;;;13.47;7.97;;;3.70;94.40;;;;;;6193209;23;20205;-88
2021/11/09 00:47:52;;;;;;;14.47;8.43;;;3.80;94.10;;;;;;6191842;23;20251;-88
2021/11/09 00:50:22;;;;;;;18.67;8.47;;;3.80;94.00;;;;;;6193587;23;20251;-89
2021/11/09 00:52:49;;;;;;;15.13;8.20;;;3.90;94.10;;;;;;6190844;23;20210;-87
2021/11/09 00:55:18;;;;;;;12.67;8.00;;;3.90;94.00;;;;;;6193086;23;20183;-88
2021/11/09 00:57:47;;;;;;;14.23;7.90;;;4.00;94.00;;;;;;6192456;23;20237;-88
2021/11/09 01:00:18;;;;;;;11.77;8.23;;;4.10;94.00;;;;;;6193625;23;20253;-88
2021/11/09 01:02:46;;;;;;;13.00;7.97;;;4.10;93.80;;;;;;6191676;23;20207;-87
2021/11/09 01:05:14;;;;;;;13.23;7.87;;;4.00;93.90;;;;;;6191685;23;20285;-87
2021/11/09 01:07:41;;;;;;;12.07;7.63;;;4.00;93.80;;;;;;6190804;23;20210;-87
2021/11/09 01:10:09;;;;;;;14.67;7.57;;;4.00;94.00;;;;;;6192567;23;20686;-87
2021/11/09 01:12:38;;;;;;;15.73;7.67;;;4.10;94.00;;;;;;6192552;23;20250;-90
2021/11/09 01:15:07;;;;;;;16.67;7.97;;;4.10;94.00;;;;;;6194328;23;20213;-88
2021/11/09 01:17:34;;;;;;;12.57;7.20;;;4.20;93.80;;;;;;6193576;23;20281;-86
2021/11/09 01:20:02;;;;;;;11.80;7.10;;;4.20;93.90;;;;;;6194069;23;20194;-86
2021/11/09 01:22:29;;;;;;;15.07;7.83;;;4.20;93.90;;;;;;6191613;23;20237;-89
2021/11/09 01:24:56;;;;;;;12.27;7.43;;;4.30;93.90;;;;;;6192022;23;20179;-88
2021/11/09 01:27:23;;;;;;;12.30;7.47;;;4.20;94.00;;;;;;6190497;23;20196;-88
2021/11/09 01:29:51;;;;;;;14.83;8.00;;;4.30;94.40;;;;;;6191465;23;20175;-91
2021/11/09 01:32:19;;;;;;;15.97;7.63;;;4.40;94.00;;;;;;6190833;23;20221;-87
2021/11/09 01:34:45;;;;;;;12.83;7.30;;;4.50;94.00;;;;;;6190520;23;20178;-88
2021/11/09 01:37:12;;;;;;;14.73;7.47;;;4.50;94.10;;;;;;6191794;23;20562;-87
2021/11/09 01:39:39;;;;;;;13.93;7.70;;;4.40;93.80;;;;;;6191247;23;20206;-88
2021/11/09 01:42:07;;;;;;;15.67;7.40;;;4.40;94.10;;;;;;6190764;23;20689;-87
2021/11/09 01:44:34;;;;;;;13.30;7.07;;;4.40;94.00;;;;;;6190773;23;20210;-88
2021/11/09 01:47:02;;;;;;;12.87;6.90;;;4.40;93.90;;;;;;6164141;23;20246;-89
2021/11/09 01:49:30;;;;;;;15.83;7.50;;;4.40;93.90;;;;;;6189521;23;20209;-92
2021/11/09 01:51:58;;;;;;;11.67;6.77;;;4.30;94.00;;;;;;6190664;23;20174;-90
2021/11/09 01:54:25;;;;;;;16.10;7.40;;;4.30;94.20;;;;;;6187857;23;20199;-90
2021/11/09 01:56:52;;;;;;;18.53;7.50;;;4.30;94.20;;;;;;6187939;23;20182;-88
2021/11/09 01:59:19;;;;;;;13.47;7.30;;;4.20;94.00;;;;;;6185157;23;20229;-90
2021/11/09 02:01:46;;;;;;;14.83;7.03;;;4.10;93.80;;;;;;6186960;23;20181;-90
2021/11/09 02:04:15;;;;;;;16.23;6.97;;;4.10;94.00;;;;;;6183384;23;20210;-90
2021/11/09 02:06:42;;;;;;;12.63;7.33;;;4.10;94.10;;;;;;6183057;23;20196;-89
2021/11/09 02:09:12;;;;;;;13.40;7.17;;;4.10;94.10;;;;;;6183593;23;20293;-89
2021/11/09 02:11:39;;;;;;;13.43;7.47;;;4.10;94.20;;;;;;6183724;23;20626;-90
2021/11/09 02:14:07;;;;;;;12.67;7.23;;;4.20;94.20;;;;;;6183882;23;20240;-89
2021/11/09 02:16:35;;;;;;;17.70;7.73;;;4.30;94.00;;;;;;6183542;23;20626;-90
2021/11/09 02:19:02;;;;;;;13.27;7.30;;;4.40;93.80;;;;;;6183413;23;20210;-89
2021/11/09 02:21:31;;;;;;;13.63;7.33;;;4.40;93.70;;;;;;6183964;23;20209;-90
2021/11/09 02:23:58;;;;;;;15.33;7.70;;;4.30;94.00;;;;;;6183035;23;20202;-90
2021/11/09 02:26:26;;;;;;;14.33;7.03;;;4.40;94.10;;;;;;6184927;23;20217;-89
2021/11/09 02:28:56;;;;;;;11.87;7.30;;;4.40;93.80;;;;;;6187073;23;20202;-87
2021/11/09 02:31:23;;;;;;;13.13;7.27;;;4.30;93.90;;;;;;6190004;23;20167;-89
2021/11/09 02:33:51;;;;;;;14.27;7.50;;;4.20;94.00;;;;;;6188962;23;20202;-90
2021/11/09 02:36:19;;;;;;;13.20;7.00;;;4.20;94.30;;;;;;6187736;23;20179;-88
2021/11/09 02:38:49;;;;;;;14.93;6.50;;;4.30;94.20;;;;;;6188354;23;20208;-88
2021/11/09 02:41:17;;;;;;;13.57;6.80;;;4.20;94.10;;;;;;6188498;23;20190;-88
2021/11/09 02:43:45;;;;;;;13.90;7.10;;;4.10;94.00;;;;;;6187432;23;20205;-89
2021/11/09 02:46:31;;;;;;;15.83;7.03;;;4.00;94.30;;;;;;6188565;23;20540;-89
2021/11/09 02:49:04;;;;;;;10.63;6.27;;;3.70;94.80;;;;;;6189017;23;20260;-88
2021/11/09 02:51:35;;;;;;;15.23;6.97;;;3.50;95.00;;;;;;6189267;23;20474;-92
2021/11/09 02:54:07;;;;;;;13.50;7.03;;;3.40;95.80;;;;;;6187787;23;20221;-89
2021/11/09 02:56:39;;;;;;;13.37;6.97;;;3.40;96.20;;;;;;6188767;23;20175;-90
2021/11/09 02:59:15;;;;;;;12.63;7.07;;;3.30;96.10;;;;;;6187893;23;20230;-88
2021/11/09 03:01:48;;;;;;;16.63;7.07;;;3.30;96.30;;;;;;6187797;23;20185;-89
2021/11/09 03:04:23;;;;;;;9.83;6.70;;;3.40;96.10;;;;;;6186663;23;20199;-88
2021/11/09 03:06:55;;;;;;;14.23;7.50;;;3.40;96.00;;;;;;6186805;23;20190;-87
2021/11/09 03:09:34;;;;;;;15.03;7.80;;;3.30;96.10;;;;;;6186572;23;20257;-88
2021/11/09 03:12:03;;;;;;;13.27;6.73;;;3.30;96.00;;;;;;6193742;23;20221;-91
2021/11/09 03:14:30;;;;;;;14.60;8.00;;;3.30;96.00;;;;;;6185296;23;20211;-89
2021/11/09 03:17:01;;;;;;;14.60;7.23;;;3.20;96.00;;;;;;6186231;23;20185;-89
2021/11/09 03:19:35;;;;;;;17.63;8.03;;;3.20;96.10;;;;;;6184289;23;20517;-88
2021/11/09 03:44:17;;;;;;;13.27;7.87;;;2.70;96.90;;;;;;6188443;23;20573;-87
2021/11/09 03:46:46;;;;;;;16.53;7.43;;;2.60;97.20;;;;;;6188812;23;20245;-87
2021/11/09 03:49:15;;;;;;;11.83;7.63;;;2.60;97.60;;;;;;6190488;23;20226;-87
2021/11/09 03:51:42;;;;;;;14.07;7.50;;;2.60;97.70;;;;;;6188173;23;20206;-87
2021/11/09 03:54:12;;;;;;;12.73;7.37;;;2.70;97.20;;;;;;6162630;23;20210;-88
2021/11/09 03:56:45;;;;;;;13.10;7.37;;;2.80;96.80;;;;;;6190779;23;20220;-88
2021/11/09 03:59:17;;;;;;;13.90;7.23;;;2.70;96.40;;;;;;6191296;23;20211;-87
2021/11/09 04:01:59;;;;;;;16.63;7.50;;;2.60;96.50;;;;;;6189127;23;20166;-87
2021/11/09 04:04:35;;;;;;;12.80;7.03;;;2.70;96.40;;;;;;6186165;23;20518;-87
2021/11/09 04:07:06;;;;;;;11.27;7.00;;;2.70;96.10;;;;;;6188666;23;20178;-87
2021/11/09 04:09:43;;;;;;;14.67;7.20;;;2.70;95.90;;;;;;6188952;23;20210;-89
2021/11/09 04:12:22;;;;;;;15.07;7.23;;;2.70;95.80;;;;;;6189882;23;20175;-88
2021/11/09 04:14:54;;;;;;;12.43;7.33;;;2.70;95.80;;;;;;6191406;23;20185;-87
2021/11/09 04:17:29;;;;;;;11.37;7.37;;;2.60;95.70;;;;;;6193583;23;20171;-89
2021/11/09 04:20:00;;;;;;;12.27;6.70;;;2.50;95.90;;;;;;6192775;23;20170;-88
2021/11/09 04:25:53;;;;;;;10.73;6.73;;;2.40;96.20;;;;;;5158189;27;21136;-86
2021/11/09 04:28:27;;;;;;;12.30;7.50;;;2.40;96.10;;;;;;5134302;27;20227;-87
2021/11/09 04:31:09;;;;;;;14.03;7.57;;;2.40;96.00;;;;;;5116961;28;20238;-87
2021/11/09 04:51:29;;;;;;;16.07;7.63;;;2.20;96.40;;;;;;5040151;28;20237;-87
2021/11/09 05:10:32;;;;;;;12.67;6.63;;;2.10;96.00;;;;;;5113255;28;20206;-86
2021/11/09 05:13:00;;;;;;;13.50;7.17;;;2.10;95.90;;;;;;5105782;28;20906;-88
2021/11/09 05:15:29;;;;;;;12.70;7.20;;;2.00;95.90;;;;;;5102610;28;20525;-86
2021/11/09 05:17:57;;;;;;;12.37;6.90;;;2.00;95.80;;;;;;5111146;28;20304;-87
2021/11/09 05:20:24;;;;;;;13.10;7.40;;;1.90;95.80;;;;;;5103324;28;20372;-87
2021/11/09 05:22:51;;;;;;;13.93;7.20;;;1.80;96.10;;;;;;5110110;28;21028;-89
2021/11/09 05:25:18;;;;;;;12.53;7.03;;;1.70;95.90;;;;;;5106724;28;20255;-88
2021/11/09 05:27:47;;;;;;;9.77;6.53;;;1.70;96.30;;;;;;5110733;27;20226;-86
2021/11/09 05:30:16;;;;;;;11.23;6.57;;;1.60;96.00;;;;;;5104482;28;20206;-87
2021/11/09 05:32:45;;;;;;;10.93;6.23;;;1.60;95.90;;;;;;5113603;27;20231;-87
2021/11/09 05:35:13;;;;;;;12.70;7.13;;;1.60;96.10;;;;;;5102667;28;20276;-86
2021/11/09 05:37:42;;;;;;;13.67;6.20;;;1.50;95.70;;;;;;5098244;28;20690;-88
2021/11/09 05:40:11;;;;;;;8.63;5.83;;;1.60;95.70;;;;;;5103567;28;20200;-89
2021/11/09 05:42:38;;;;;;;11.30;6.73;;;1.50;95.80;;;;;;5104770;28;20649;-88
2021/11/09 05:45:07;;;;;;;8.57;6.17;;;1.50;95.50;;;;;;5104491;28;20216;-87
2021/11/09 05:47:34;;;;;;;10.00;6.77;;;1.50;95.40;;;;;;5102694;28;20260;-88
2021/11/09 05:50:06;;;;;;;10.70;6.30;;;1.50;95.20;;;;;;5104958;28;20215;-89
2021/11/09 05:52:33;;;;;;;8.50;6.57;;;1.40;95.40;;;;;;5105376;28;20227;-89
2021/11/09 05:55:00;;;;;;;8.23;6.40;;;1.30;95.70;;;;;;5086311;28;20205;-90
2021/11/09 05:57:27;;;;;;;12.67;7.60;;;1.30;95.70;;;;;;5084569;28;20197;-86
2021/11/09 05:59:54;;;;;;;9.53;7.30;;;1.20;95.70;;;;;;5090598;28;20200;-89
2021/11/09 06:02:22;;;;;;;9.83;7.20;;;1.20;95.80;;;;;;5097516;28;20480;-89
2021/11/09 06:04:54;;;;;;;9.00;7.40;;;1.10;96.10;;;;;;5107823;28;20227;-86
2021/11/09 06:07:22;;;;;;;11.80;7.87;;;1.10;96.20;;;;;;5087548;28;20295;-85
2021/11/09 06:09:49;;;;;;;10.63;7.97;;;1.00;96.10;;;;;;5087854;28;20196;-89
2021/11/09 06:12:17;;;;;;;10.70;7.83;;;1.00;96.10;;;;;;5103150;28;20265;-86
2021/11/09 06:14:44;;;;;;;11.60;7.87;;;0.90;96.40;;;;;;5100751;28;20233;-86
2021/11/09 06:17:11;;;;;;;9.50;7.63;;;1.00;96.60;;;;;;5097121;28;20251;-89
2021/11/09 06:19:41;;;;;;;11.37;7.33;;;1.10;96.30;;;;;;5104848;28;20350;-87
2021/11/09 06:22:08;;;;;;;11.67;7.57;;;1.20;96.10;;;;;;5101692;28;20203;-87
2021/11/09 06:24:36;;;;;;;10.43;8.30;;;1.20;95.90;;;;;;5099327;28;20291;-86
2021/11/09 06:27:05;;;;;;;13.83;8.40;;;1.20;96.00;;;;;;5086024;28;20200;-87
2021/11/09 06:29:32;;;;;;;14.70;8.97;;;1.20;96.20;;;;;;5095875;28;20298;-85
2021/11/09 06:32:00;;;;;;;14.73;9.07;;;1.20;96.50;;;;;;5097917;28;20195;-86
2021/11/09 06:34:27;;;;;;;13.47;9.00;;;1.20;96.60;;;;;;5091758;28;20254;-87
2021/11/09 06:36:54;;;;;;;15.07;9.57;;;1.30;96.60;;;;;;5091107;28;20193;-84
2021/11/09 06:39:22;;;;;;;15.13;9.50;;;1.30;96.50;;;;;;5094123;28;20238;-86
2021/11/09 06:41:51;;;;;;;17.67;11.27;;;1.40;96.80;;;;;;5087902;28;20280;-87
2021/11/09 06:44:19;;;;;;;16.87;10.70;;;1.50;96.50;;;;;;5092233;28;20228;-87
2021/11/09 06:46:46;;;;;;;22.93;10.50;;;1.60;96.60;;;;;;5088343;28;20778;-86
2021/11/09 06:49:15;;;;;;;18.30;11.13;;;1.70;96.70;;;;;;5094029;28;20258;-89
2021/11/09 06:51:42;;;;;;;16.57;10.17;;;1.70;97.00;;;;;;5094442;28;20192;-86
2021/11/09 06:54:09;;;;;;;19.03;10.37;;;1.80;97.20;;;;;;5085565;28;20233;-84
2021/11/09 06:56:36;;;;;;;42.93;11.07;;;2.00;97.40;;;;;;5087169;28;20194;-86
2021/11/09 06:59:06;;;;;;;20.90;11.00;;;2.20;97.00;;;;;;5084485;28;20308;-85
2021/11/09 07:01:33;;;;;;;15.10;9.93;;;2.20;96.80;;;;;;5089112;28;20205;-87
2021/11/09 07:04:00;;;;;;;15.73;10.17;;;2.30;97.00;;;;;;5088708;28;20244;-87
2021/11/09 07:06:27;;;;;;;22.67;11.10;;;2.50;97.00;;;;;;5087744;28;20197;-88
2021/11/09 07:08:55;;;;;;;16.60;10.07;;;2.70;96.60;;;;;;5091789;28;20759;-86
2021/11/09 07:11:22;;;;;;;14.73;10.17;;;2.70;96.30;;;;;;5082351;28;20201;-86
2021/11/09 07:13:49;;;;;;;19.33;10.57;;;2.70;96.10;;;;;;5089256;28;20227;-89
2021/11/09 07:16:19;;;;;;;19.83;10.47;;;2.80;96.20;;;;;;5087491;28;20670;-87
2021/11/09 07:18:46;;;;;;;16.13;9.53;;;2.90;95.40;;;;;;5087818;28;20221;-87
2021/11/09 07:21:13;;;;;;;19.00;9.73;;;2.90;95.50;;;;;;5086747;28;20714;-88
2021/11/09 07:23:40;;;;;;;19.33;9.07;;;3.00;95.70;;;;;;5090722;28;20220;-87
2021/11/09 07:26:07;;;;;;;13.13;8.67;;;3.00;95.30;;;;;;5084190;28;20228;-87
2021/11/09 07:28:34;;;;;;;12.93;8.83;;;3.00;95.30;;;;;;5087537;28;20224;-87
2021/11/09 07:31:03;;;;;;;12.00;7.83;;;3.10;95.10;;;;;;5089305;28;20201;-87
2021/11/09 07:33:33;;;;;;;20.27;8.60;;;3.00;94.90;;;;;;5083486;28;20228;-87
2021/11/09 07:36:00;;;;;;;18.60;8.53;;;3.00;94.60;;;;;;5083971;28;20208;-88
2021/11/09 07:38:27;;;;;;;14.50;8.03;;;3.10;94.70;;;;;;5084643;28;20271;-87
2021/11/09 07:40:54;;;;;;;11.77;8.00;;;3.00;94.60;;;;;;5080901;28;20200;-87
2021/11/09 07:43:22;;;;;;;14.60;8.20;;;3.10;95.00;;;;;;5074888;28;20227;-87
2021/11/09 07:45:49;;;;;;;9.07;7.20;;;3.10;94.40;;;;;;5092859;28;20219;-87
2021/11/09 07:48:16;;;;;;;9.57;7.00;;;3.20;94.70;;;;;;5093335;28;20590;-87
2021/11/09 07:50:44;;;;;;;10.60;7.10;;;3.30;94.20;;;;;;5091529;28;20747;-89
2021/11/09 07:53:15;;;;;;;11.73;7.40;;;3.40;94.00;;;;;;5100681;28;20224;-88
2021/11/09 07:55:48;;;;;;;10.43;7.13;;;3.50;93.70;;;;;;5092483;28;20195;-88
2021/11/09 07:58:18;;;;;;;11.87;8.10;;;3.60;93.90;;;;;;5089100;28;20219;-90
2021/11/09 08:00:50;;;;;;;10.30;7.93;;;3.60;93.20;;;;;;5078779;28;20587;-87
2021/11/09 08:03:23;;;;;;;10.80;8.20;;;3.60;93.60;;;;;;5086338;28;20244;-87
2021/11/09 08:06:09;;;;;;;14.00;8.20;;;3.80;93.60;;;;;;5086460;28;20224;-87
2021/11/09 08:08:39;;;;;;;10.90;6.97;;;3.90;92.80;;;;;;5086393;28;20245;-89
2021/11/09 08:11:07;;;;;;;16.67;8.70;;;3.90;93.10;;;;;;5088007;28;20197;-90
2021/11/09 08:13:34;;;;;;;10.40;7.57;;;3.70;93.20;;;;;;5089570;28;20228;-89
2021/11/09 08:16:01;;;;;;;12.03;8.13;;;4.10;93.40;;;;;;5087152;28;20279;-90
2021/11/09 08:18:28;;;;;;;11.13;7.73;;;4.20;92.80;;;;;;5088812;28;20232;-90
2021/11/09 08:20:58;;;;;;;10.93;7.40;;;3.70;93.20;;;;;;5089766;28;20272;-89
2021/11/09 08:23:24;;;;;;;10.27;7.50;;;3.90;93.40;;;;;;5088456;28;20239;-87
2021/11/09 08:25:52;;;;;;;8.27;7.10;;;4.20;93.10;;;;;;5092303;28;20209;-85
2021/11/09 08:28:19;;;;;;;11.00;6.67;;;4.40;92.30;;;;;;5084909;28;20229;-87
2021/11/09 08:30:48;;;;;;;9.07;7.37;;;4.60;91.90;;;;;;5088523;28;20871;-87
2021/11/09 08:33:15;;;;;;;9.63;7.03;;;4.00;92.60;;;;;;5088758;28;20224;-86
2021/11/09 08:35:43;;;;;;;11.30;7.17;;;4.30;92.20;;;;;;5092658;28;20241;-88
2021/11/09 08:38:12;;;;;;;10.93;7.13;;;4.50;92.70;;;;;;5087731;28;20224;-91
2021/11/09 08:40:42;;;;;;;7.17;6.30;;;4.80;91.90;;;;;;5092965;28;20219;-91
2021/11/09 08:43:10;;;;;;;7.53;6.00;;;5.50;90.60;;;;;;5095429;28;20303;-87
2021/11/09 08:45:44;;;;;;;6.20;5.25;;;6.30;85.20;;;;;;5094120;28;20228;-87
2021/11/09 08:48:13;;;;;;;7.93;5.78;;;6.70;80.40;;;;;;5094536;28;20579;-86
2021/11/09 08:50:40;;;;;;;8.13;5.95;;;6.70;80.10;;;;;;5095838;28;20192;-90
2021/11/09 08:53:58;;;;;;;7.32;5.20;;;6.90;76.60;;;;;;5095548;28;20244;-89
2021/11/09 08:56:33;;;;;;;8.00;5.60;;;7.70;72.60;;;;;;5101707;28;20746;-88
2021/11/09 09:05:26;;;;;;;6.55;5.47;;;8.60;59.40;;;;;;5142815;28;20229;-91
2021/11/09 09:07:54;;;;;;;10.27;5.75;;;8.00;68.30;;;;;;5143085;28;20278;-90
2021/11/09 09:10:21;;;;;;;8.98;5.72;;;8.20;64.10;;;;;;5148415;27;20221;-89
2021/11/09 09:12:49;;;;;;;6.63;5.35;;;9.10;58.50;;;;;;5143033;27;20219;-91
2021/11/09 09:15:37;;;;;;;8.85;6.68;;;10.90;46.70;;;;;;5146937;27;20270;-90
2021/11/09 09:22:17;;;;;;;6.88;5.95;;;9.10;55.10;;;;;;5143855;27;20182;-93
2021/11/09 09:27:50;;;;;;;6.20;5.47;;;11.00;44.10;;;;;;5124024;27;20234;-91
2021/11/09 09:31:16;;;;;;;7.35;6.45;;;10.80;43.90;;;;;;5142896;27;20194;-91
2021/11/09 09:56:40;;;;;;;8.45;5.38;;;10.70;45.20;;;;;;5085050;28;20254;-92
2021/11/09 09:59:10;;;;;;;8.38;4.93;;;10.50;47.30;;;;;;5090539;28;20273;-90
2021/11/09 10:02:06;;;;;;;8.07;4.85;;;10.70;44.80;;;;;;5092689;28;20189;-90
2021/11/09 10:04:35;;;;;;;6.43;4.55;;;11.90;40.60;;;;;;5099397;28;20248;-89
2021/11/09 10:07:05;;;;;;;8.30;4.90;;;12.80;35.40;;;;;;5103151;28;20249;-88
2021/11/09 10:09:38;;;;;;;9.60;5.55;;;12.40;34.40;;;;;;5100772;28;20240;-92
2021/11/09 10:12:21;;;;;;;6.85;4.95;;;11.60;37.30;;;;;;5100204;28;20188;-88
2021/11/09 10:15:00;;;;;;;6.22;4.43;;;10.70;41.20;;;;;;5087659;28;20220;-92
2021/11/09 10:17:29;;;;;;;6.82;4.70;;;10.30;47.10;;;;;;5090975;28;20198;-89
2021/11/09 10:20:12;;;;;;;7.80;4.63;;;11.50;40.20;;;;;;5092764;28;20200;-92
2021/11/09 10:22:44;;;;;;;9.07;4.72;;;11.90;38.00;;;;;;5093839;28;20192;-92
2021/11/09 10:25:17;;;;;;;8.95;4.43;;;12.00;36.40;;;;;;5098981;28;20207;-93
2021/11/09 10:27:48;;;;;;;10.48;4.57;;;11.40;37.70;;;;;;5081286;28;20226;-92
2021/11/09 10:33:51;;;;;;;9.40;4.40;;;11.10;38.50;;;;;;5105868;28;20192;-90
2021/11/09 10:46:48;;;;;;;8.73;5.45;;;11.30;37.70;;;;;;5321707;22;20212;-91
2021/11/09 11:06:25;;;;;;;6.82;3.55;;;9.00;49.20;;;;;;5053597;28;20217;-90
2021/11/09 11:08:54;;;;;;;8.57;3.40;;;9.00;51.60;;;;;;5041029;28;20253;-90
2021/11/09 11:14:45;;;;;;;5.05;3.38;;;9.00;48.20;;;;;;5051109;28;20275;-89
2021/11/09 11:17:13;;;;;;;6.88;3.40;;;9.00;47.50;;;;;;5038559;28;20200;-90
2021/11/09 11:19:44;;;;;;;6.53;3.30;;;8.70;50.10;;;;;;5035486;28;20222;-88
2021/11/09 11:22:15;;;;;;;7.70;3.60;;;8.30;51.10;;;;;;5033266;28;20210;-89
2021/11/09 11:24:58;;;;;;;6.35;3.78;;;8.30;52.60;;;;;;5051132;28;20702;-84
2021/11/09 11:27:30;;;;;;;5.97;3.63;;;8.10;52.60;;;;;;5045185;28;20304;-88
2021/11/09 11:29:59;;;;;;;75.43;44.83;;;8.20;52.50;;;;;;5045675;28;20202;-91
2021/11/09 11:32:26;;;;;;;5.25;3.83;;;8.20;55.20;;;;;;5032133;28;20203;-87
2021/11/09 11:34:54;;;;;;;8.38;3.50;;;8.30;55.00;;;;;;5034621;28;20198;-89
2021/11/09 11:37:23;;;;;;;6.20;3.38;;;8.50;54.40;;;;;;5036494;28;20201;-89
2021/11/09 11:39:54;;;;;;;6.65;3.15;;;8.50;51.50;;;;;;5041558;28;20225;-89
2021/11/09 11:42:21;;;;;;;5.18;3.30;;;8.50;51.20;;;;;;5039948;28;20199;-91
2021/11/09 11:44:59;;;;;;;6.23;3.50;;;8.50;51.70;;;;;;5041629;28;20218;-89
2021/11/09 11:47:26;;;;;;;8.48;3.60;;;8.50;51.10;;;;;;5060131;28;20261;-88
2021/11/09 11:49:57;;;;;;;5.57;3.95;;;8.70;51.40;;;;;;5049716;28;20563;-88
2021/11/09 11:52:42;;;;;;;8.48;4.10;;;8.80;53.00;;;;;;5063045;28;20654;-87
2021/11/09 11:55:19;;;;;;;8.60;4.50;;;8.90;52.50;;;;;;5076701;28;20270;-87
2021/11/09 11:57:55;;;;;;;9.80;4.10;;;9.00;51.90;;;;;;5077258;28;20220;-88
2021/11/09 12:00:45;;;;;;;6.50;4.18;;;8.90;51.80;;;;;;5079510;28;20200;-89
2021/11/09 12:03:35;;;;;;;4.65;3.58;;;8.60;53.80;;;;;;5064637;28;20240;-87
2021/11/09 12:06:14;;;;;;;7.88;4.13;;;8.70;52.30;;;;;;5061167;28;20246;-87
2021/11/09 12:08:48;;;;;;;6.40;4.00;;;8.80;52.90;;;;;;5060334;28;20229;-89
2021/11/09 12:11:36;;;;;;;5.93;4.65;;;8.90;52.20;;;;;;5059136;28;20280;-90
2021/11/09 12:14:05;;;;;;;7.18;4.50;;;8.80;52.60;;;;;;5072054;28;20233;-87
2021/11/09 12:16:52;;;;;;;7.80;4.25;;;8.90;51.50;;;;;;5072300;28;20201;-90
2021/11/09 12:19:54;;;;;;;8.55;4.43;;;8.80;51.10;;;;;;5060628;28;20240;-88
2021/11/09 12:22:23;;;;;;;5.85;4.38;;;8.90;51.00;;;;;;5068513;28;20202;-88
2021/11/09 12:24:55;;;;;;;7.85;5.05;;;8.60;52.80;;;;;;5055648;28;20233;-88
2021/11/09 12:27:29;;;;;;;7.63;4.93;;;8.70;53.20;;;;;;5075254;28;20220;-90
2021/11/09 12:29:57;;;;;;;10.07;5.00;;;8.70;53.10;;;;;;5067906;28;20231;-91
2021/11/09 12:32:46;;;;;;;9.37;5.30;;;8.70;53.60;;;;;;5050496;28;20250;-89
2021/11/09 12:35:26;;;;;;;8.47;5.00;;;8.50;54.30;;;;;;5066257;28;20208;-89
2021/11/09 12:38:11;;;;;;;8.65;5.57;;;8.60;54.80;;;;;;5051269;28;20642;-87
2021/11/09 12:40:49;;;;;;;8.02;5.75;;;8.70;54.60;;;;;;5055520;28;20700;-87
2021/11/09 12:43:24;;;;;;;8.88;5.25;;;8.70;54.80;;;;;;5036327;28;20273;-90
2021/11/09 12:46:00;;;;;;;7.00;4.90;;;8.70;54.80;;;;;;5064427;28;20217;-90
2021/11/09 12:48:29;;;;;;;7.93;5.40;;;8.70;55.50;;;;;;5076776;28;20219;-92
2021/11/09 12:53:42;;;;;;;9.05;5.47;;;8.60;55.50;;;;;;5055135;28;20266;-90
2021/11/09 12:56:23;;;;;;;7.85;5.32;;;8.60;55.80;;;;;;5081553;28;20207;-91
2021/11/09 12:58:55;;;;;;;10.52;5.82;;;8.60;54.60;;;;;;5058916;28;20238;-92
2021/11/09 13:01:34;;;;;;;7.28;5.20;;;8.50;56.00;;;;;;5067936;28;20196;-91
2021/11/09 13:04:19;;;;;;;10.70;5.87;;;8.50;56.20;;;;;;5058797;28;20240;-89
2021/11/09 13:06:54;;;;;;;8.07;6.10;;;8.50;56.90;;;;;;5063512;28;20217;-91
2021/11/09 13:09:25;;;;;;;9.67;5.80;;;8.50;57.50;;;;;;5067132;28;20233;-91
2021/11/09 13:11:57;;;;;;;10.47;5.87;;;8.40;57.60;;;;;;5049957;28;20262;-90
2021/11/09 13:14:38;;;;;;;11.50;6.33;;;8.20;58.80;;;;;;5064747;28;20305;-90
2021/11/09 13:17:19;;;;;;;8.17;5.70;;;8.10;61.30;;;;;;5070794;28;20211;-90
2021/11/09 13:19:57;;;;;;;12.43;6.30;;;8.00;64.00;;;;;;5067726;28;20224;-89
2021/11/09 13:22:29;;;;;;;8.43;5.80;;;8.00;64.20;;;;;;5053742;28;20193;-91
2021/11/09 13:24:59;;;;;;;9.90;6.17;;;8.10;65.00;;;;;;5091661;28;20246;-91
2021/11/09 13:31:02;;;;;;;9.73;6.00;;;8.10;64.00;;;;;;5082759;28;20371;-89
2021/11/09 13:33:45;;;;;;;8.47;5.90;;;8.10;64.20;;;;;;5063289;28;20644;-90
2021/11/09 13:36:14;;;;;;;10.87;6.10;;;8.00;65.30;;;;;;5067255;28;20552;-90
2021/11/09 13:38:43;;;;;;;9.47;5.70;;;8.10;64.60;;;;;;5051131;28;20226;-89
2021/11/09 13:41:18;;;;;;;10.70;6.23;;;8.10;64.10;;;;;;5064514;28;20205;-91
2021/11/09 13:43:49;;;;;;;10.10;5.97;;;8.20;63.50;;;;;;5070002;28;20225;-89
2021/11/09 13:46:20;;;;;;;8.97;6.50;;;8.10;62.90;;;;;;5068661;28;20692;-89
2021/11/09 13:48:50;;;;;;;10.60;6.60;;;8.00;64.50;;;;;;5070337;28;20263;-89
2021/11/09 13:51:24;;;;;;;8.80;6.10;;;8.10;65.80;;;;;;5069151;28;20190;-88
2021/11/09 13:54:17;;;;;;;10.23;6.07;;;8.00;63.00;;;;;;5077378;28;20230;-90
2021/11/09 13:56:46;;;;;;;8.60;6.07;;;7.90;64.30;;;;;;5048663;28;20193;-90
2021/11/09 13:59:30;;;;;;;9.83;6.27;;;7.90;64.90;;;;;;5075520;28;20217;-90
2021/11/09 14:02:03;;;;;;;9.87;5.87;;;7.90;64.90;;;;;;5072184;28;20186;-89
2021/11/09 14:16:07;;;;;;;9.40;5.87;;;7.70;66.30;;;;;;5062575;28;20190;-89
2021/11/09 14:18:36;;;;;;;9.53;5.87;;;7.70;67.30;;;;;;5071356;28;20217;-90
2021/11/09 14:21:05;;;;;;;10.23;6.40;;;7.60;67.70;;;;;;5075950;28;20280;-89
2021/11/09 14:27:30;;;;;;;9.87;5.53;;;7.80;66.40;;;;;;5091539;28;20744;-91
2021/11/09 14:30:00;;;;;;;8.43;5.67;;;7.80;67.00;;;;;;5072561;28;20264;-90
2021/11/09 14:32:37;;;;;;;9.77;5.67;;;7.80;66.10;;;;;;5078572;28;20205;-91
2021/11/09 14:35:17;;;;;;;9.40;5.47;;;7.80;67.80;;;;;;5075626;28;20649;-90
2021/11/09 14:37:52;;;;;;;9.00;5.80;;;7.70;66.80;;;;;;5072634;28;20232;-89
2021/11/09 14:40:55;;;;;;;7.87;6.00;;;7.70;67.90;;;;;;5074971;28;20193;-90
2021/11/09 14:43:26;;;;;;;11.33;6.13;;;7.60;69.60;;;;;;5055320;28;20217;-89
2021/11/09 14:56:17;;;;;;;12.90;6.30;;;7.40;72.30;;;;;;5055505;28;20218;-84
2021/11/09 14:58:46;;;;;;;11.60;6.18;;;7.30;72.10;;;;;;5058900;28;20292;-87
2021/11/09 15:01:25;;;;;;;14.17;6.30;;;7.30;73.00;;;;;;5047696;28;20572;-87
2021/11/09 15:04:17;;;;;;;11.30;6.43;;;7.20;74.90;;;;;;5036613;28;20288;-88
2021/11/09 15:07:29;;;;;;;10.27;6.23;;;7.30;74.40;;;;;;5038982;28;20274;-90
2021/11/09 15:10:17;;;;;;;9.87;6.00;;;7.30;75.00;;;;;;5040551;28;20206;-90
2021/11/09 15:12:58;;;;;;;9.80;6.53;;;7.20;75.10;;;;;;5054879;28;20276;-89
2021/11/09 15:26:41;;;;;;;10.40;7.70;;;6.90;80.10;;;;;;5039044;28;20723;-88
2021/11/09 15:29:15;;;;;;;10.67;6.50;;;6.80;80.90;;;;;;5034653;28;20291;-88
2021/11/09 15:31:47;;;;;;;9.23;7.03;;;6.80;81.40;;;;;;5047537;28;20282;-89
2021/11/09 15:34:24;;;;;;;10.93;6.70;;;6.80;81.60;;;;;;5057820;28;20229;-91
2021/11/09 15:37:10;;;;;;;9.83;6.67;;;6.80;81.70;;;;;;5020024;28;20572;-90
2021/11/09 15:39:45;;;;;;;10.73;6.67;;;6.60;82.90;;;;;;5053870;28;20276;-89
2021/11/09 15:42:25;;;;;;;10.97;6.90;;;6.60;83.70;;;;;;5057929;28;20221;-91
2021/11/09 15:44:54;;;;;;;10.40;6.50;;;6.50;84.40;;;;;;5050271;28;20205;-91
2021/11/09 15:55:34;;;;;;;13.57;6.43;;;6.40;84.40;;;;;;5106523;22;20229;-89
2021/11/09 15:58:05;;;;;;;9.13;6.17;;;6.40;84.20;;;;;;5067742;28;20299;-91
2021/11/09 16:00:34;;;;;;;11.37;6.20;;;6.40;84.40;;;;;;5054986;28;20554;-90
2021/11/09 16:03:04;;;;;;;9.80;6.40;;;6.30;84.40;;;;;;5065154;28;20232;-92
2021/11/09 16:05:34;;;;;;;8.80;6.20;;;6.30;84.10;;;;;;5090939;28;20196;-91
2021/11/09 16:08:05;;;;;;;10.33;5.80;;;6.20;84.80;;;;;;5089480;28;20888;-91
2021/11/09 16:10:35;;;;;;;10.73;6.00;;;6.10;84.70;;;;;;5070864;28;20203;-91
2021/11/09 16:13:27;;;;;;;9.90;5.93;;;6.20;84.00;;;;;;5093325;28;20313;-92
2021/11/09 16:15:56;;;;;;;11.93;5.77;;;6.10;83.90;;;;;;5066502;28;20281;-91